sensor_id;sensor_type;location;lat;lon;timestamp;temperature;humidity
62809;DHT22;48848;39.002;-94.584;2022-12-10T00:01:31;18.10;47.10
62809;DHT22;48848;39.002;-94.584;2022-12-10T00:03:58;18.40;46.40
62809;DHT22;48848;39.002;-94.584;2022-12-10T00:06:25;18.30;45.80
62809;DHT22;48848;39.002;-94.584;2022-12-10T00:08:52;18.00;46.10
62809;DHT22;48848;39.002;-94.584;2022-12-10T00:11:18;17.80;47.30
62809;DHT22;48848;39.002;-94.584;2022-12-10T00:13:45;17.50;48.00
62809;DHT22;48848;39.002;-94.584;2022-12-10T00:16:12;17.30;48.50
62809;DHT22;48848;39.002;-94.584;2022-12-10T00:18:38;17.20;48.90
62809;DHT22;48848;39.002;-94.584;2022-12-10T00:21:09;17.10;49.30
62809;DHT22;48848;39.002;-94.584;2022-12-10T00:23:35;17.00;49.70
62809;DHT22;48848;39.002;-94.584;2022-12-10T00:26:05;17.00;49.80
62809;DHT22;48848;39.002;-94.584;2022-12-10T00:28:31;17.10;49.30
62809;DHT22;48848;39.002;-94.584;2022-12-10T00:31:04;17.50;48.60
62809;DHT22;48848;39.002;-94.584;2022-12-10T00:33:30;17.90;47.70
62809;DHT22;48848;39.002;-94.584;2022-12-10T00:36:00;18.20;46.90
62809;DHT22;48848;39.002;-94.584;2022-12-10T00:38:26;18.30;46.00
62809;DHT22;48848;39.002;-94.584;2022-12-10T00:40:52;18.00;46.70
62809;DHT22;48848;39.002;-94.584;2022-12-10T00:43:18;17.90;47.60
62809;DHT22;48848;39.002;-94.584;2022-12-10T00:45:44;17.60;48.00
62809;DHT22;48848;39.002;-94.584;2022-12-10T00:48:10;17.30;48.40
62809;DHT22;48848;39.002;-94.584;2022-12-10T00:50:36;17.20;49.00
62809;DHT22;48848;39.002;-94.584;2022-12-10T00:53:01;17.00;49.40
62809;DHT22;48848;39.002;-94.584;2022-12-10T00:55:27;16.90;49.80
62809;DHT22;48848;39.002;-94.584;2022-12-10T00:57:53;16.90;50.20
62809;DHT22;48848;39.002;-94.584;2022-12-10T01:00:19;17.00;49.80
62809;DHT22;48848;39.002;-94.584;2022-12-10T01:02:45;17.40;49.00
62809;DHT22;48848;39.002;-94.584;2022-12-10T01:05:11;17.70;48.00
62809;DHT22;48848;39.002;-94.584;2022-12-10T01:07:37;18.10;47.30
62809;DHT22;48848;39.002;-94.584;2022-12-10T01:10:03;18.50;46.30
62809;DHT22;48848;39.002;-94.584;2022-12-10T01:12:29;18.20;46.10
62809;DHT22;48848;39.002;-94.584;2022-12-10T01:14:55;17.90;47.00
62809;DHT22;48848;39.002;-94.584;2022-12-10T01:17:21;17.60;47.70
62809;DHT22;48848;39.002;-94.584;2022-12-10T01:19:47;17.40;48.20
62809;DHT22;48848;39.002;-94.584;2022-12-10T01:22:13;17.30;48.60
62809;DHT22;48848;39.002;-94.584;2022-12-10T01:24:38;17.10;49.00
62809;DHT22;48848;39.002;-94.584;2022-12-10T01:27:04;17.00;49.00
62809;DHT22;48848;39.002;-94.584;2022-12-10T01:29:30;17.00;49.40
62809;DHT22;48848;39.002;-94.584;2022-12-10T01:31:56;17.00;49.40
62809;DHT22;48848;39.002;-94.584;2022-12-10T01:34:23;17.00;49.20
62809;DHT22;48848;39.002;-94.584;2022-12-10T01:36:50;17.40;48.70
62809;DHT22;48848;39.002;-94.584;2022-12-10T01:39:17;17.70;47.60
62809;DHT22;48848;39.002;-94.584;2022-12-10T01:41:50;18.00;46.70
62809;DHT22;48848;39.002;-94.584;2022-12-10T01:46:44;18.10;46.50
62809;DHT22;48848;39.002;-94.584;2022-12-10T01:49:11;17.80;47.40
62809;DHT22;48848;39.002;-94.584;2022-12-10T01:51:39;17.60;48.50
62809;DHT22;48848;39.002;-94.584;2022-12-10T01:54:07;17.40;49.30
62809;DHT22;48848;39.002;-94.584;2022-12-10T01:56:35;17.20;49.70
62809;DHT22;48848;39.002;-94.584;2022-12-10T01:59:01;17.30;50.20
62809;DHT22;48848;39.002;-94.584;2022-12-10T02:03:58;17.30;50.50
62809;DHT22;48848;39.002;-94.584;2022-12-10T02:06:31;17.20;50.50
62809;DHT22;48848;39.002;-94.584;2022-12-10T02:09:04;17.20;50.90
62809;DHT22;48848;39.002;-94.584;2022-12-10T02:14:26;17.10;51.50
62809;DHT22;48848;39.002;-94.584;2022-12-10T02:16:58;17.00;51.50
62809;DHT22;48848;39.002;-94.584;2022-12-10T02:21:52;16.90;51.60
62809;DHT22;48848;39.002;-94.584;2022-12-10T02:24:22;16.90;51.90
62809;DHT22;48848;39.002;-94.584;2022-12-10T02:26:51;16.80;52.20
62809;DHT22;48848;39.002;-94.584;2022-12-10T02:29:21;16.80;51.50
62809;DHT22;48848;39.002;-94.584;2022-12-10T02:31:52;16.80;51.70
62809;DHT22;48848;39.002;-94.584;2022-12-10T02:34:19;17.10;51.20
62809;DHT22;48848;39.002;-94.584;2022-12-10T02:36:47;17.60;50.40
62809;DHT22;48848;39.002;-94.584;2022-12-10T02:39:17;17.90;49.30
62809;DHT22;48848;39.002;-94.584;2022-12-10T02:41:47;17.80;49.20
62809;DHT22;48848;39.002;-94.584;2022-12-10T02:44:15;17.60;49.90
62809;DHT22;48848;39.002;-94.584;2022-12-10T02:46:42;17.50;50.80
62809;DHT22;48848;39.002;-94.584;2022-12-10T02:49:08;17.40;51.20
62809;DHT22;48848;39.002;-94.584;2022-12-10T02:51:37;17.30;51.90
62809;DHT22;48848;39.002;-94.584;2022-12-10T02:54:07;17.10;52.60
62809;DHT22;48848;39.002;-94.584;2022-12-10T02:56:53;17.10;52.90
62809;DHT22;48848;39.002;-94.584;2022-12-10T02:59:23;17.10;53.00
62809;DHT22;48848;39.002;-94.584;2022-12-10T03:04:23;17.00;53.40
62809;DHT22;48848;39.002;-94.584;2022-12-10T03:06:57;17.00;52.70
62809;DHT22;48848;39.002;-94.584;2022-12-10T03:09:29;16.80;53.00
62809;DHT22;48848;39.002;-94.584;2022-12-10T03:11:58;16.80;53.30
62809;DHT22;48848;39.002;-94.584;2022-12-10T03:14:30;17.00;53.30
62809;DHT22;48848;39.002;-94.584;2022-12-10T03:16:58;17.10;52.70
62809;DHT22;48848;39.002;-94.584;2022-12-10T03:19:39;17.20;52.50
62809;DHT22;48848;39.002;-94.584;2022-12-10T03:22:08;18.50;53.20
62809;DHT22;48848;39.002;-94.584;2022-12-10T03:24:36;17.90;50.50
62809;DHT22;48848;39.002;-94.584;2022-12-10T03:27:03;17.90;49.70
62809;DHT22;48848;39.002;-94.584;2022-12-10T03:29:31;17.60;50.60
62809;DHT22;48848;39.002;-94.584;2022-12-10T03:31:59;17.30;52.20
62809;DHT22;48848;39.002;-94.584;2022-12-10T03:34:25;17.10;52.70
62809;DHT22;48848;39.002;-94.584;2022-12-10T03:36:51;17.00;53.40
62809;DHT22;48848;39.002;-94.584;2022-12-10T03:39:17;16.90;53.70
62809;DHT22;48848;39.002;-94.584;2022-12-10T03:41:43;16.80;53.60
62809;DHT22;48848;39.002;-94.584;2022-12-10T03:44:09;16.80;54.00
62809;DHT22;48848;39.002;-94.584;2022-12-10T03:46:35;16.70;54.40
62809;DHT22;48848;39.002;-94.584;2022-12-10T03:49:02;16.70;54.80
62809;DHT22;48848;39.002;-94.584;2022-12-10T03:51:28;16.60;54.70
62809;DHT22;48848;39.002;-94.584;2022-12-10T03:53:55;16.50;54.50
62809;DHT22;48848;39.002;-94.584;2022-12-10T03:56:21;16.50;54.80
62809;DHT22;48848;39.002;-94.584;2022-12-10T03:58:47;16.40;54.60
62809;DHT22;48848;39.002;-94.584;2022-12-10T04:01:13;16.40;54.60
62809;DHT22;48848;39.002;-94.584;2022-12-10T04:03:40;16.30;54.50
62809;DHT22;48848;39.002;-94.584;2022-12-10T04:06:07;16.30;54.50
62809;DHT22;48848;39.002;-94.584;2022-12-10T04:08:33;16.20;54.50
62809;DHT22;48848;39.002;-94.584;2022-12-10T04:11:06;16.20;54.50
62809;DHT22;48848;39.002;-94.584;2022-12-10T04:13:33;16.20;54.50
62809;DHT22;48848;39.002;-94.584;2022-12-10T04:16:17;16.10;54.50
62809;DHT22;48848;39.002;-94.584;2022-12-10T04:18:56;16.10;54.50
62809;DHT22;48848;39.002;-94.584;2022-12-10T04:21:23;16.00;54.40
62809;DHT22;48848;39.002;-94.584;2022-12-10T04:24:10;16.00;54.50
62809;DHT22;48848;39.002;-94.584;2022-12-10T04:26:55;16.00;54.50
62809;DHT22;48848;39.002;-94.584;2022-12-10T04:29:22;16.00;54.50
62809;DHT22;48848;39.002;-94.584;2022-12-10T04:31:49;15.90;54.90
62809;DHT22;48848;39.002;-94.584;2022-12-10T04:34:14;15.90;54.90
62809;DHT22;48848;39.002;-94.584;2022-12-10T04:36:40;15.90;54.90
62809;DHT22;48848;39.002;-94.584;2022-12-10T04:39:06;15.80;54.80
62809;DHT22;48848;39.002;-94.584;2022-12-10T04:41:32;15.80;54.90
62809;DHT22;48848;39.002;-94.584;2022-12-10T04:43:58;15.80;54.90
62809;DHT22;48848;39.002;-94.584;2022-12-10T04:46:24;15.80;54.90
62809;DHT22;48848;39.002;-94.584;2022-12-10T04:48:50;15.70;55.20
62809;DHT22;48848;39.002;-94.584;2022-12-10T04:51:16;15.70;55.00
62809;DHT22;48848;39.002;-94.584;2022-12-10T04:53:42;15.80;54.90
62809;DHT22;48848;39.002;-94.584;2022-12-10T04:56:07;15.70;55.10
62809;DHT22;48848;39.002;-94.584;2022-12-10T04:58:33;15.70;55.40
62809;DHT22;48848;39.002;-94.584;2022-12-10T05:01:03;15.70;55.20
62809;DHT22;48848;39.002;-94.584;2022-12-10T05:03:29;15.70;55.20
62809;DHT22;48848;39.002;-94.584;2022-12-10T05:05:55;15.70;55.50
62809;DHT22;48848;39.002;-94.584;2022-12-10T05:08:21;15.60;55.40
62809;DHT22;48848;39.002;-94.584;2022-12-10T05:10:47;15.60;55.40
62809;DHT22;48848;39.002;-94.584;2022-12-10T05:13:12;15.60;56.40
62809;DHT22;48848;39.002;-94.584;2022-12-10T05:15:38;15.60;55.40
62809;DHT22;48848;39.002;-94.584;2022-12-10T05:18:04;15.60;56.20
62809;DHT22;48848;39.002;-94.584;2022-12-10T05:20:30;15.50;55.30
62809;DHT22;48848;39.002;-94.584;2022-12-10T05:22:56;15.50;55.50
62809;DHT22;48848;39.002;-94.584;2022-12-10T05:25:40;15.50;55.50
62809;DHT22;48848;39.002;-94.584;2022-12-10T05:28:21;15.40;55.40
62809;DHT22;48848;39.002;-94.584;2022-12-10T05:30:48;15.50;55.40
62809;DHT22;48848;39.002;-94.584;2022-12-10T05:33:13;15.40;55.30
62809;DHT22;48848;39.002;-94.584;2022-12-10T05:35:40;15.40;55.30
62809;DHT22;48848;39.002;-94.584;2022-12-10T05:38:05;15.40;55.40
62809;DHT22;48848;39.002;-94.584;2022-12-10T05:40:35;15.40;55.90
62809;DHT22;48848;39.002;-94.584;2022-12-10T05:43:01;15.40;55.10
62809;DHT22;48848;39.002;-94.584;2022-12-10T05:45:27;15.80;53.60
62809;DHT22;48848;39.002;-94.584;2022-12-10T05:47:53;16.20;51.80
62809;DHT22;48848;39.002;-94.584;2022-12-10T05:50:18;16.60;50.50
62809;DHT22;48848;39.002;-94.584;2022-12-10T05:52:44;17.00;49.80
62809;DHT22;48848;39.002;-94.584;2022-12-10T05:55:10;17.20;48.80
62809;DHT22;48848;39.002;-94.584;2022-12-10T05:57:36;17.40;48.20
62809;DHT22;48848;39.002;-94.584;2022-12-10T06:00:03;17.70;47.80
62809;DHT22;48848;39.002;-94.584;2022-12-10T06:02:32;17.80;47.30
62809;DHT22;48848;39.002;-94.584;2022-12-10T06:04:58;18.10;47.00
62809;DHT22;48848;39.002;-94.584;2022-12-10T06:07:24;18.30;46.60
62809;DHT22;48848;39.002;-94.584;2022-12-10T06:09:50;18.40;46.20
62809;DHT22;48848;39.002;-94.584;2022-12-10T06:12:16;18.60;46.00
62809;DHT22;48848;39.002;-94.584;2022-12-10T06:14:42;18.70;45.50
62809;DHT22;48848;39.002;-94.584;2022-12-10T06:17:08;18.90;45.40
62809;DHT22;48848;39.002;-94.584;2022-12-10T06:19:34;18.90;45.20
62809;DHT22;48848;39.002;-94.584;2022-12-10T06:22:00;19.10;44.90
62809;DHT22;48848;39.002;-94.584;2022-12-10T06:24:26;19.30;44.70
62809;DHT22;48848;39.002;-94.584;2022-12-10T06:26:52;19.30;44.50
62809;DHT22;48848;39.002;-94.584;2022-12-10T06:29:18;19.40;44.50
62809;DHT22;48848;39.002;-94.584;2022-12-10T06:31:44;19.60;44.30
62809;DHT22;48848;39.002;-94.584;2022-12-10T06:34:10;19.70;44.20
62809;DHT22;48848;39.002;-94.584;2022-12-10T06:36:36;19.80;44.00
62809;DHT22;48848;39.002;-94.584;2022-12-10T06:39:02;19.90;44.00
62809;DHT22;48848;39.002;-94.584;2022-12-10T06:41:28;19.60;44.40
62809;DHT22;48848;39.002;-94.584;2022-12-10T06:43:54;19.20;45.50
62809;DHT22;48848;39.002;-94.584;2022-12-10T06:46:24;18.90;46.60
62809;DHT22;48848;39.002;-94.584;2022-12-10T06:48:50;18.60;47.20
62809;DHT22;48848;39.002;-94.584;2022-12-10T06:51:16;18.50;47.30
62809;DHT22;48848;39.002;-94.584;2022-12-10T06:53:43;18.80;46.60
62809;DHT22;48848;39.002;-94.584;2022-12-10T06:56:18;19.00;45.80
62809;DHT22;48848;39.002;-94.584;2022-12-10T06:58:44;19.30;45.20
62809;DHT22;48848;39.002;-94.584;2022-12-10T07:01:12;19.50;44.90
62809;DHT22;48848;39.002;-94.584;2022-12-10T07:03:38;19.70;44.40
62809;DHT22;48848;39.002;-94.584;2022-12-10T07:06:05;19.90;44.40
62809;DHT22;48848;39.002;-94.584;2022-12-10T07:08:31;19.50;44.90
62809;DHT22;48848;39.002;-94.584;2022-12-10T07:10:57;19.20;46.20
62809;DHT22;48848;39.002;-94.584;2022-12-10T07:13:23;18.90;46.70
62809;DHT22;48848;39.002;-94.584;2022-12-10T07:15:48;18.70;47.20
62809;DHT22;48848;39.002;-94.584;2022-12-10T07:18:14;18.50;47.50
62809;DHT22;48848;39.002;-94.584;2022-12-10T07:20:40;18.40;47.80
62809;DHT22;48848;39.002;-94.584;2022-12-10T07:23:06;18.50;47.40
62809;DHT22;48848;39.002;-94.584;2022-12-10T07:25:32;18.80;46.20
62809;DHT22;48848;39.002;-94.584;2022-12-10T07:27:58;19.20;45.40
62809;DHT22;48848;39.002;-94.584;2022-12-10T07:30:24;19.40;44.60
62809;DHT22;48848;39.002;-94.584;2022-12-10T07:32:50;19.50;44.10
62809;DHT22;48848;39.002;-94.584;2022-12-10T07:35:16;19.30;46.00
62809;DHT22;48848;39.002;-94.584;2022-12-10T07:37:42;18.90;45.60
62809;DHT22;48848;39.002;-94.584;2022-12-10T07:40:08;18.70;46.30
62809;DHT22;48848;39.002;-94.584;2022-12-10T07:42:34;18.50;46.80
62809;DHT22;48848;39.002;-94.584;2022-12-10T07:45:00;18.40;47.10
62809;DHT22;48848;39.002;-94.584;2022-12-10T07:47:26;18.20;47.30
62809;DHT22;48848;39.002;-94.584;2022-12-10T07:49:52;18.20;47.20
62809;DHT22;48848;39.002;-94.584;2022-12-10T07:52:18;18.50;46.40
62809;DHT22;48848;39.002;-94.584;2022-12-10T07:54:44;18.90;45.40
62809;DHT22;48848;39.002;-94.584;2022-12-10T07:57:10;19.20;44.50
62809;DHT22;48848;39.002;-94.584;2022-12-10T07:59:36;19.50;44.00
62809;DHT22;48848;39.002;-94.584;2022-12-10T08:02:02;19.30;44.20
62809;DHT22;48848;39.002;-94.584;2022-12-10T08:04:28;19.00;45.30
62809;DHT22;48848;39.002;-94.584;2022-12-10T08:06:55;18.70;45.80
62809;DHT22;48848;39.002;-94.584;2022-12-10T08:09:21;18.50;46.30
62809;DHT22;48848;39.002;-94.584;2022-12-10T08:11:47;18.30;46.80
62809;DHT22;48848;39.002;-94.584;2022-12-10T08:14:14;18.20;47.10
62809;DHT22;48848;39.002;-94.584;2022-12-10T08:16:39;18.20;47.00
62809;DHT22;48848;39.002;-94.584;2022-12-10T08:19:05;18.50;46.00
62809;DHT22;48848;39.002;-94.584;2022-12-10T08:21:32;18.90;45.00
62809;DHT22;48848;39.002;-94.584;2022-12-10T08:23:58;19.20;44.40
62809;DHT22;48848;39.002;-94.584;2022-12-10T08:26:25;19.40;43.90
62809;DHT22;48848;39.002;-94.584;2022-12-10T08:28:51;19.20;44.40
62809;DHT22;48848;39.002;-94.584;2022-12-10T08:31:18;18.90;45.30
62809;DHT22;48848;39.002;-94.584;2022-12-10T08:33:45;18.60;45.70
62809;DHT22;48848;39.002;-94.584;2022-12-10T08:36:12;18.50;46.30
62809;DHT22;48848;39.002;-94.584;2022-12-10T08:38:39;18.30;46.70
62809;DHT22;48848;39.002;-94.584;2022-12-10T08:41:11;18.20;46.90
62809;DHT22;48848;39.002;-94.584;2022-12-10T08:43:37;18.20;46.80
62809;DHT22;48848;39.002;-94.584;2022-12-10T08:46:03;18.40;45.90
62809;DHT22;48848;39.002;-94.584;2022-12-10T08:48:29;18.90;45.00
62809;DHT22;48848;39.002;-94.584;2022-12-10T08:50:55;19.20;44.20
62809;DHT22;48848;39.002;-94.584;2022-12-10T08:53:21;19.30;43.60
62809;DHT22;48848;39.002;-94.584;2022-12-10T08:55:51;19.10;44.30
62809;DHT22;48848;39.002;-94.584;2022-12-10T08:58:17;18.80;45.10
62809;DHT22;48848;39.002;-94.584;2022-12-10T09:00:43;18.60;45.60
62809;DHT22;48848;39.002;-94.584;2022-12-10T09:03:09;18.40;46.20
62809;DHT22;48848;39.002;-94.584;2022-12-10T09:05:35;18.30;46.50
62809;DHT22;48848;39.002;-94.584;2022-12-10T09:08:01;18.20;46.80
62809;DHT22;48848;39.002;-94.584;2022-12-10T09:10:27;18.10;46.80
62809;DHT22;48848;39.002;-94.584;2022-12-10T09:12:53;18.40;46.10
62809;DHT22;48848;39.002;-94.584;2022-12-10T09:15:19;18.70;45.00
62809;DHT22;48848;39.002;-94.584;2022-12-10T09:17:45;19.10;44.20
62809;DHT22;48848;39.002;-94.584;2022-12-10T09:20:11;19.30;43.60
62809;DHT22;48848;39.002;-94.584;2022-12-10T09:22:36;19.30;43.70
62809;DHT22;48848;39.002;-94.584;2022-12-10T09:25:04;19.00;44.50
62809;DHT22;48848;39.002;-94.584;2022-12-10T09:27:30;18.70;45.00
62809;DHT22;48848;39.002;-94.584;2022-12-10T09:29:56;18.60;45.80
62809;DHT22;48848;39.002;-94.584;2022-12-10T09:32:22;18.40;46.00
62809;DHT22;48848;39.002;-94.584;2022-12-10T09:34:51;18.30;46.40
62809;DHT22;48848;39.002;-94.584;2022-12-10T09:37:17;18.10;46.50
62809;DHT22;48848;39.002;-94.584;2022-12-10T09:39:43;18.10;46.40
62809;DHT22;48848;39.002;-94.584;2022-12-10T09:42:22;18.50;45.50
62809;DHT22;48848;39.002;-94.584;2022-12-10T09:45:06;18.80;44.60
62809;DHT22;48848;39.002;-94.584;2022-12-10T09:52:46;19.00;44.40
62809;DHT22;48848;39.002;-94.584;2022-12-10T09:55:15;18.70;45.00
62809;DHT22;48848;39.002;-94.584;2022-12-10T09:57:42;18.50;45.60
62809;DHT22;48848;39.002;-94.584;2022-12-10T10:00:42;18.40;46.10
62809;DHT22;48848;39.002;-94.584;2022-12-10T10:03:01;18.20;46.40
62809;DHT22;48848;39.002;-94.584;2022-12-10T10:05:28;18.10;46.40
62809;DHT22;48848;39.002;-94.584;2022-12-10T10:07:55;18.10;46.10
62809;DHT22;48848;39.002;-94.584;2022-12-10T10:13:01;18.90;44.40
62809;DHT22;48848;39.002;-94.584;2022-12-10T10:15:38;19.20;43.50
62809;DHT22;48848;39.002;-94.584;2022-12-10T10:18:17;19.20;43.50
62809;DHT22;48848;39.002;-94.584;2022-12-10T10:20:44;18.90;44.40
62809;DHT22;48848;39.002;-94.584;2022-12-10T10:23:12;18.70;45.20
62809;DHT22;48848;39.002;-94.584;2022-12-10T10:25:39;18.50;45.70
62809;DHT22;48848;39.002;-94.584;2022-12-10T10:28:05;18.30;46.00
62809;DHT22;48848;39.002;-94.584;2022-12-10T10:30:31;18.20;46.30
62809;DHT22;48848;39.002;-94.584;2022-12-10T10:32:57;18.10;46.40
62809;DHT22;48848;39.002;-94.584;2022-12-10T10:35:28;18.20;45.90
62809;DHT22;48848;39.002;-94.584;2022-12-10T10:38:16;18.60;44.90
62809;DHT22;48848;39.002;-94.584;2022-12-10T10:40:41;19.00;44.10
62809;DHT22;48848;39.002;-94.584;2022-12-10T10:43:12;19.30;43.40
62809;DHT22;48848;39.002;-94.584;2022-12-10T10:45:42;19.10;44.00
62809;DHT22;48848;39.002;-94.584;2022-12-10T10:51:34;18.60;45.20
62809;DHT22;48848;39.002;-94.584;2022-12-10T10:53:30;18.50;45.80
62809;DHT22;48848;39.002;-94.584;2022-12-10T10:58:33;18.20;46.30
62809;DHT22;48848;39.002;-94.584;2022-12-10T11:01:03;18.10;46.30
62809;DHT22;48848;39.002;-94.584;2022-12-10T11:03:30;18.40;45.50
62809;DHT22;48848;39.002;-94.584;2022-12-10T11:05:58;18.80;44.60
62809;DHT22;48848;39.002;-94.584;2022-12-10T11:08:25;19.20;43.80
62809;DHT22;48848;39.002;-94.584;2022-12-10T11:11:04;19.30;43.10
62809;DHT22;48848;39.002;-94.584;2022-12-10T11:13:32;19.10;43.90
62809;DHT22;48848;39.002;-94.584;2022-12-10T11:16:00;18.80;44.70
62809;DHT22;48848;39.002;-94.584;2022-12-10T11:18:30;18.60;45.40
62809;DHT22;48848;39.002;-94.584;2022-12-10T11:23:27;18.30;46.10
62809;DHT22;48848;39.002;-94.584;2022-12-10T11:26:02;18.10;46.30
62809;DHT22;48848;39.002;-94.584;2022-12-10T11:28:40;18.00;46.30
62809;DHT22;48848;39.002;-94.584;2022-12-10T11:33:38;18.70;44.50
62809;DHT22;48848;39.002;-94.584;2022-12-10T11:38:50;19.20;43.40
62809;DHT22;48848;39.002;-94.584;2022-12-10T11:51:26;18.20;46.20
62809;DHT22;48848;39.002;-94.584;2022-12-10T11:54:07;18.10;46.40
62809;DHT22;48848;39.002;-94.584;2022-12-10T11:56:40;18.20;46.10
62809;DHT22;48848;39.002;-94.584;2022-12-10T12:01:58;18.90;44.20
62809;DHT22;48848;39.002;-94.584;2022-12-10T12:14:34;18.40;45.80
62809;DHT22;48848;39.002;-94.584;2022-12-10T12:17:07;18.30;46.00
62809;DHT22;48848;39.002;-94.584;2022-12-10T12:19:54;18.20;46.20
62809;DHT22;48848;39.002;-94.584;2022-12-10T12:24:47;18.00;46.50
62809;DHT22;48848;39.002;-94.584;2022-12-10T12:32:25;17.70;46.70
62809;DHT22;48848;39.002;-94.584;2022-12-10T12:35:14;17.70;46.90
62809;DHT22;48848;39.002;-94.584;2022-12-10T12:37:46;17.60;46.80
62809;DHT22;48848;39.002;-94.584;2022-12-10T12:42:59;17.50;47.00
62809;DHT22;48848;39.002;-94.584;2022-12-10T12:51:10;17.30;47.10
62809;DHT22;48848;39.002;-94.584;2022-12-10T12:53:39;17.30;47.10
62809;DHT22;48848;39.002;-94.584;2022-12-10T12:58:44;17.20;47.20
62809;DHT22;48848;39.002;-94.584;2022-12-10T13:03:58;17.10;47.30
62809;DHT22;48848;39.002;-94.584;2022-12-10T13:06:28;17.00;47.30
62809;DHT22;48848;39.002;-94.584;2022-12-10T13:09:14;17.00;47.40
62809;DHT22;48848;39.002;-94.584;2022-12-10T13:11:42;16.90;47.30
62809;DHT22;48848;39.002;-94.584;2022-12-10T13:24:20;16.80;47.40
62809;DHT22;48848;39.002;-94.584;2022-12-10T13:37:34;16.60;47.50
62809;DHT22;48848;39.002;-94.584;2022-12-10T13:40:12;16.60;47.50
62809;DHT22;48848;39.002;-94.584;2022-12-10T13:42:39;16.50;47.60
62809;DHT22;48848;39.002;-94.584;2022-12-10T13:45:26;16.50;47.50
62809;DHT22;48848;39.002;-94.584;2022-12-10T13:48:16;16.50;47.50
62809;DHT22;48848;39.002;-94.584;2022-12-10T13:50:43;16.50;47.60
62809;DHT22;48848;39.002;-94.584;2022-12-10T14:03:41;16.30;48.00
62809;DHT22;48848;39.002;-94.584;2022-12-10T14:06:24;16.30;48.00
62809;DHT22;48848;39.002;-94.584;2022-12-10T14:08:55;16.20;47.90
62809;DHT22;48848;39.002;-94.584;2022-12-10T14:11:23;16.20;48.00
62809;DHT22;48848;39.002;-94.584;2022-12-10T14:13:52;16.20;48.00
62809;DHT22;48848;39.002;-94.584;2022-12-10T14:16:20;16.20;48.00
62809;DHT22;48848;39.002;-94.584;2022-12-10T14:18:57;16.20;48.00
62809;DHT22;48848;39.002;-94.584;2022-12-10T14:21:24;16.10;47.90
62809;DHT22;48848;39.002;-94.584;2022-12-10T14:23:50;16.10;47.90
62809;DHT22;48848;39.002;-94.584;2022-12-10T14:26:19;16.10;48.00
62809;DHT22;48848;39.002;-94.584;2022-12-10T14:28:49;16.00;48.10
62809;DHT22;48848;39.002;-94.584;2022-12-10T14:31:17;16.00;48.00
62809;DHT22;48848;39.002;-94.584;2022-12-10T14:33:43;16.00;48.10
62809;DHT22;48848;39.002;-94.584;2022-12-10T14:36:17;16.00;48.10
62809;DHT22;48848;39.002;-94.584;2022-12-10T14:38:45;16.00;48.20
62809;DHT22;48848;39.002;-94.584;2022-12-10T14:41:14;15.90;48.20
62809;DHT22;48848;39.002;-94.584;2022-12-10T14:43:41;15.90;48.20
62809;DHT22;48848;39.002;-94.584;2022-12-10T14:46:12;15.90;48.20
62809;DHT22;48848;39.002;-94.584;2022-12-10T14:48:39;15.90;48.20
62809;DHT22;48848;39.002;-94.584;2022-12-10T14:51:12;15.90;48.30
62809;DHT22;48848;39.002;-94.584;2022-12-10T14:53:39;15.90;48.30
62809;DHT22;48848;39.002;-94.584;2022-12-10T14:56:05;15.80;48.50
62809;DHT22;48848;39.002;-94.584;2022-12-10T14:58:39;15.80;48.50
62809;DHT22;48848;39.002;-94.584;2022-12-10T15:01:09;15.80;48.70
62809;DHT22;48848;39.002;-94.584;2022-12-10T15:03:39;15.80;49.70
62809;DHT22;48848;39.002;-94.584;2022-12-10T15:06:09;15.80;48.80
62809;DHT22;48848;39.002;-94.584;2022-12-10T15:08:35;15.80;48.90
62809;DHT22;48848;39.002;-94.584;2022-12-10T15:11:02;15.70;49.20
62809;DHT22;48848;39.002;-94.584;2022-12-10T15:15:57;15.70;49.80
62809;DHT22;48848;39.002;-94.584;2022-12-10T15:18:28;15.70;50.10
62809;DHT22;48848;39.002;-94.584;2022-12-10T15:21:08;15.70;50.30
62809;DHT22;48848;39.002;-94.584;2022-12-10T15:23:34;15.80;50.10
62809;DHT22;48848;39.002;-94.584;2022-12-10T15:26:05;15.80;49.80
62809;DHT22;48848;39.002;-94.584;2022-12-10T15:28:37;15.70;50.00
62809;DHT22;48848;39.002;-94.584;2022-12-10T15:33:43;15.80;50.30
62809;DHT22;48848;39.002;-94.584;2022-12-10T15:36:22;15.80;51.20
62809;DHT22;48848;39.002;-94.584;2022-12-10T15:38:49;15.70;51.20
62809;DHT22;48848;39.002;-94.584;2022-12-10T15:44:06;15.70;51.90
62809;DHT22;48848;39.002;-94.584;2022-12-10T15:46:51;15.60;52.20
62809;DHT22;48848;39.002;-94.584;2022-12-10T15:49:17;15.60;52.70
62809;DHT22;48848;39.002;-94.584;2022-12-10T15:51:43;15.80;55.90
62809;DHT22;48848;39.002;-94.584;2022-12-10T15:54:18;15.70;53.00
62809;DHT22;48848;39.002;-94.584;2022-12-10T15:56:45;15.60;53.80
62809;DHT22;48848;39.002;-94.584;2022-12-10T15:59:11;15.70;53.90
62809;DHT22;48848;39.002;-94.584;2022-12-10T16:01:37;16.00;52.60
62809;DHT22;48848;39.002;-94.584;2022-12-10T16:04:03;16.40;51.10
62809;DHT22;48848;39.002;-94.584;2022-12-10T16:06:29;16.70;50.00
62809;DHT22;48848;39.002;-94.584;2022-12-10T16:08:55;16.90;49.80
62809;DHT22;48848;39.002;-94.584;2022-12-10T16:11:21;16.80;51.80
62809;DHT22;48848;39.002;-94.584;2022-12-10T16:13:49;16.60;51.10
62809;DHT22;48848;39.002;-94.584;2022-12-10T16:16:15;16.40;51.60
62809;DHT22;48848;39.002;-94.584;2022-12-10T16:18:43;16.30;52.00
62809;DHT22;48848;39.002;-94.584;2022-12-10T16:21:08;16.20;52.10
62809;DHT22;48848;39.002;-94.584;2022-12-10T16:23:35;16.10;52.20
62809;DHT22;48848;39.002;-94.584;2022-12-10T16:26:01;16.00;52.30
62809;DHT22;48848;39.002;-94.584;2022-12-10T16:28:27;15.90;52.40
62809;DHT22;48848;39.002;-94.584;2022-12-10T16:30:54;15.90;52.60
62809;DHT22;48848;39.002;-94.584;2022-12-10T16:33:21;15.80;52.60
62809;DHT22;48848;39.002;-94.584;2022-12-10T16:35:48;15.80;52.70
62809;DHT22;48848;39.002;-94.584;2022-12-10T16:38:14;15.80;52.80
62809;DHT22;48848;39.002;-94.584;2022-12-10T16:40:41;16.00;51.80
62809;DHT22;48848;39.002;-94.584;2022-12-10T16:43:14;16.50;50.50
62809;DHT22;48848;39.002;-94.584;2022-12-10T16:45:40;16.90;49.70
62809;DHT22;48848;39.002;-94.584;2022-12-10T16:48:08;17.20;49.00
62809;DHT22;48848;39.002;-94.584;2022-12-10T16:50:34;17.20;50.60
62809;DHT22;48848;39.002;-94.584;2022-12-10T16:53:09;16.90;50.50
62809;DHT22;48848;39.002;-94.584;2022-12-10T16:55:37;16.70;51.30
62809;DHT22;48848;39.002;-94.584;2022-12-10T16:58:02;16.40;51.60
62809;DHT22;48848;39.002;-94.584;2022-12-10T17:00:28;16.30;51.80
62809;DHT22;48848;39.002;-94.584;2022-12-10T17:02:54;16.20;52.00
62809;DHT22;48848;39.002;-94.584;2022-12-10T17:05:28;16.10;52.30
62809;DHT22;48848;39.002;-94.584;2022-12-10T17:07:55;16.20;52.20